createdAt,value
2022-11-17T00:02:15.908Z,14.40
2022-11-17T00:04:32.284Z,14.50
2022-11-17T00:06:40.751Z,14.50
2022-11-17T00:08:50.932Z,14.50
2022-11-17T00:11:05.460Z,14.50
2022-11-17T00:13:27.253Z,14.50
2022-11-17T00:15:49.796Z,14.50
2022-11-17T00:18:17.837Z,14.50
2022-11-17T00:20:50.484Z,14.50
2022-11-17T00:22:54.043Z,14.50
2022-11-17T00:25:04.701Z,14.50
2022-11-17T00:27:11.870Z,14.50
2022-11-17T00:29:16.752Z,14.50
2022-11-17T00:31:41.484Z,14.50
2022-11-17T00:34:06.531Z,14.50
2022-11-17T00:36:10.684Z,14.50
2022-11-17T00:38:16.781Z,14.50
2022-11-17T00:40:21.649Z,14.50
2022-11-17T00:42:35.064Z,14.50
2022-11-17T00:44:37.968Z,14.50
2022-11-17T00:46:56.868Z,14.50
2022-11-17T00:49:01.414Z,14.50
2022-11-17T00:51:05.354Z,14.50
2022-11-17T00:53:08.251Z,14.50
2022-11-17T00:55:21.357Z,14.50
2022-11-17T00:57:34.678Z,14.50
2022-11-17T00:59:36.533Z,14.50
2022-11-17T01:01:39.759Z,14.50
2022-11-17T01:04:10.681Z,14.50
2022-11-17T01:06:16.779Z,14.50
2022-11-17T01:08:18.517Z,14.50
2022-11-17T01:10:28.764Z,14.50
2022-11-17T01:12:30.443Z,14.50
2022-11-17T01:14:34.722Z,14.50
2022-11-17T01:16:43.908Z,14.50
2022-11-17T01:18:49.404Z,14.50
2022-11-17T01:20:54.742Z,14.50
2022-11-17T01:23:01.222Z,14.60
2022-11-17T01:25:05.583Z,14.50
2022-11-17T01:27:17.170Z,14.50
2022-11-17T01:29:38.842Z,14.50
2022-11-17T01:31:48.934Z,14.50
2022-11-17T01:33:50.775Z,14.50
2022-11-17T01:35:52.576Z,14.50
2022-11-17T01:37:59.202Z,14.50
2022-11-17T01:40:00.928Z,14.40
2022-11-17T01:42:03.891Z,14.40
2022-11-17T01:44:34.963Z,14.40
2022-11-17T01:46:39.978Z,14.40
2022-11-17T01:48:42.702Z,14.50
2022-11-17T01:50:47.167Z,14.40
2022-11-17T01:52:49.830Z,14.40
2022-11-17T01:54:52.429Z,14.40
2022-11-17T01:56:57.290Z,14.50
2022-11-17T01:59:02.930Z,14.50
2022-11-17T02:01:04.680Z,14.40
2022-11-17T02:03:07.244Z,14.50
2022-11-17T02:05:17.620Z,14.40
2022-11-17T02:07:45.384Z,14.50
2022-11-17T02:09:47.128Z,14.40
2022-11-17T02:11:49.232Z,14.40
2022-11-17T02:13:53.193Z,14.40
2022-11-17T02:15:54.835Z,14.50
2022-11-17T02:17:57.224Z,14.50
2022-11-17T02:20:12.822Z,14.50
2022-11-17T02:22:33.782Z,14.50
2022-11-17T02:24:45.389Z,14.50
2022-11-17T02:26:47.014Z,14.50
2022-11-17T02:28:53.358Z,14.50
2022-11-17T02:31:03.973Z,14.50
2022-11-17T02:33:08.830Z,14.50
2022-11-17T02:35:13.564Z,14.50
2022-11-17T02:37:41.034Z,14.50
2022-11-17T02:39:58.194Z,14.50
2022-11-17T02:42:07.727Z,14.50
2022-11-17T02:44:09.338Z,14.50
2022-11-17T02:46:14.320Z,14.50
2022-11-17T02:48:35.663Z,14.50
2022-11-17T02:50:38.316Z,14.50
2022-11-17T02:52:40.160Z,14.50
2022-11-17T02:54:41.946Z,14.40
2022-11-17T02:56:43.679Z,14.40
2022-11-17T02:58:46.077Z,14.40
2022-11-17T03:00:53.830Z,14.40
2022-11-17T03:03:18.128Z,14.40
2022-11-17T03:05:38.375Z,14.40
2022-11-17T03:07:46.994Z,14.40
2022-11-17T03:09:57.706Z,14.40
2022-11-17T03:12:09.391Z,14.40
2022-11-17T03:14:11.012Z,14.40
2022-11-17T03:16:36.371Z,14.40
2022-11-17T03:18:38.007Z,14.40
2022-11-17T03:20:40.114Z,14.40
2022-11-17T03:22:47.710Z,14.40
2022-11-17T03:24:55.233Z,14.50
2022-11-17T03:26:59.902Z,14.50
2022-11-17T03:29:02.563Z,14.50
2022-11-17T03:31:07.050Z,14.40
2022-11-17T03:33:11.611Z,14.50
2022-11-17T03:35:15.970Z,14.50
2022-11-17T03:37:19.326Z,14.40
2022-11-17T03:39:23.918Z,14.40
2022-11-17T03:41:26.329Z,14.40
2022-11-17T03:43:28.750Z,14.40
2022-11-17T03:45:32.744Z,14.50
2022-11-17T03:47:35.335Z,14.50
2022-11-17T03:49:36.963Z,14.40
2022-11-17T03:51:38.651Z,14.50
2022-11-17T03:53:40.473Z,14.50
2022-11-17T03:56:00.115Z,14.50
2022-11-17T03:58:06.807Z,14.40
2022-11-17T04:00:10.204Z,14.50
2022-11-17T04:02:17.232Z,14.50
2022-11-17T04:04:19.861Z,14.50
2022-11-17T04:06:21.565Z,14.50
2022-11-17T04:08:25.992Z,14.50
2022-11-17T04:10:27.718Z,14.50
2022-11-17T04:12:48.260Z,14.50
2022-11-17T04:15:10.414Z,14.50
2022-11-17T04:17:12.198Z,14.50
2022-11-17T04:19:13.923Z,14.50
2022-11-17T04:21:15.619Z,14.50
2022-11-17T04:23:17.346Z,14.50
2022-11-17T04:25:38.923Z,14.50
2022-11-17T04:27:59.511Z,14.50
2022-11-17T04:30:01.402Z,14.50
2022-11-17T04:32:03.138Z,14.50
2022-11-17T04:34:05.730Z,14.50
2022-11-17T04:36:07.571Z,14.50
2022-11-17T04:38:09.927Z,14.50
2022-11-17T04:40:11.636Z,14.50
2022-11-17T04:42:13.351Z,14.50
2022-11-17T04:44:16.493Z,14.50
2022-11-17T04:46:18.886Z,14.50
2022-11-17T04:48:20.520Z,14.50
2022-11-17T04:50:22.162Z,14.50
2022-11-17T04:52:28.453Z,14.60
2022-11-17T04:54:31.536Z,14.50
2022-11-17T04:56:33.262Z,14.50
2022-11-17T04:58:35.358Z,14.60
2022-11-17T05:00:36.995Z,14.60
2022-11-17T05:02:38.674Z,14.50
2022-11-17T05:04:58.861Z,14.60
2022-11-17T05:07:00.538Z,14.60
2022-11-17T05:09:04.315Z,14.50
2022-11-17T05:11:25.239Z,14.50
2022-11-17T05:13:26.994Z,14.60
2022-11-17T05:15:47.519Z,14.60
2022-11-17T05:17:49.141Z,14.60
2022-11-17T05:19:50.793Z,14.60
2022-11-17T05:21:52.659Z,14.60
2022-11-17T05:23:54.319Z,14.60
2022-11-17T05:25:55.943Z,14.60
2022-11-17T05:27:57.612Z,14.60
2022-11-17T05:29:59.368Z,14.60
2022-11-17T05:32:01.006Z,14.60
2022-11-17T05:34:03.460Z,14.60
2022-11-17T05:36:05.540Z,14.60
2022-11-17T05:38:07.181Z,14.60
2022-11-17T05:40:09.096Z,14.60
2022-11-17T05:42:10.980Z,14.60
2022-11-17T05:44:12.643Z,14.50
2022-11-17T05:46:14.336Z,14.60
2022-11-17T05:48:19.161Z,14.60
2022-11-17T05:50:21.053Z,14.60
2022-11-17T05:52:22.703Z,14.60
2022-11-17T05:54:24.450Z,14.60
2022-11-17T05:56:32.389Z,14.60
2022-11-17T05:58:36.585Z,14.60
2022-11-17T06:00:38.980Z,14.60
2022-11-17T06:02:49.837Z,14.60
2022-11-17T06:04:51.705Z,14.60
2022-11-17T06:06:54.277Z,14.60
2022-11-17T06:08:56.258Z,14.60
2022-11-17T06:11:00.628Z,14.60
2022-11-17T06:13:02.244Z,14.60
2022-11-17T06:15:04.073Z,14.60
2022-11-17T06:17:13.441Z,14.60
2022-11-17T06:19:21.361Z,14.60
2022-11-17T06:21:23.126Z,14.60
2022-11-17T06:23:26.690Z,14.60
2022-11-17T06:25:28.666Z,14.60
2022-11-17T06:27:31.333Z,14.60
2022-11-17T06:29:33.240Z,14.60
2022-11-17T06:31:35.051Z,14.60
2022-11-17T06:33:37.582Z,14.60
2022-11-17T06:35:40.410Z,14.60
2022-11-17T06:37:42.466Z,14.60
2022-11-17T06:39:44.100Z,14.60
2022-11-17T06:41:45.752Z,14.60
2022-11-17T06:43:47.396Z,14.60
2022-11-17T06:45:49.164Z,14.60
2022-11-17T06:47:52.377Z,14.60
2022-11-17T06:49:54.062Z,14.60
2022-11-17T06:51:55.674Z,14.50
2022-11-17T06:53:57.362Z,14.60
2022-11-17T06:56:09.664Z,14.50
2022-11-17T06:58:11.653Z,14.50
2022-11-17T07:00:13.722Z,14.50
2022-11-17T07:02:15.451Z,14.50
2022-11-17T07:04:17.170Z,14.50
2022-11-17T07:06:19.076Z,14.50
2022-11-17T07:08:22.689Z,14.50
2022-11-17T07:10:24.668Z,14.50
2022-11-17T07:12:26.469Z,14.50
2022-11-17T07:14:28.286Z,14.50
2022-11-17T07:16:31.068Z,14.50
2022-11-17T07:18:33.284Z,14.50
2022-11-17T07:20:35.264Z,14.50
2022-11-17T07:22:37.225Z,14.50
2022-11-17T07:24:39.003Z,14.50
2022-11-17T07:26:40.832Z,14.50
2022-11-17T07:28:42.610Z,14.50
2022-11-17T07:30:44.553Z,14.50
2022-11-17T07:32:48.443Z,14.50
2022-11-17T07:34:53.767Z,14.60
2022-11-17T07:36:55.498Z,14.60
2022-11-17T07:38:58.050Z,14.60
2022-11-17T07:41:00.831Z,14.60
2022-11-17T07:43:02.570Z,14.60
2022-11-17T07:45:05.747Z,14.60
2022-11-17T07:47:07.526Z,14.60
2022-11-17T07:49:09.330Z,14.60
2022-11-17T07:51:12.283Z,14.60
2022-11-17T07:53:14.133Z,14.70
2022-11-17T07:55:16.159Z,14.60
2022-11-17T07:57:17.868Z,14.70
2022-11-17T07:59:21.742Z,14.70
2022-11-17T08:01:23.551Z,14.70
2022-11-17T08:03:25.321Z,14.70
2022-11-17T08:05:30.594Z,14.70
2022-11-17T08:07:32.430Z,14.70
2022-11-17T08:09:34.203Z,14.70
2022-11-17T08:21:12.073Z,14.80
2022-11-17T08:26:53.368Z,14.80
2022-11-17T08:29:18.207Z,14.90
2022-11-17T08:31:34.630Z,14.80
2022-11-17T08:37:51.506Z,14.90
2022-11-17T08:43:38.886Z,15.00
2022-11-17T08:46:07.768Z,15.00
2022-11-17T08:48:28.331Z,15.00
2022-11-17T08:53:17.600Z,15.10
2022-11-17T08:55:23.535Z,15.00
2022-11-17T08:57:33.232Z,15.10
2022-11-17T08:59:37.336Z,15.10
2022-11-17T09:01:45.644Z,15.10
2022-11-17T09:03:51.061Z,15.10
2022-11-17T09:05:56.712Z,15.10
2022-11-17T09:08:22.864Z,15.00
2022-11-17T09:10:30.519Z,15.10
2022-11-17T09:12:32.680Z,15.10
2022-11-17T09:14:39.969Z,15.10
2022-11-17T09:16:50.766Z,15.10
2022-11-17T09:18:56.711Z,15.10
2022-11-17T09:21:05.598Z,15.10
2022-11-17T09:23:07.299Z,15.10
2022-11-17T09:25:13.337Z,15.10
2022-11-17T09:27:15.391Z,15.10
2022-11-17T09:29:17.056Z,15.20
2022-11-17T09:31:19.963Z,15.10
2022-11-17T09:33:21.657Z,15.20
2022-11-17T09:35:23.457Z,15.10
2022-11-17T09:37:26.496Z,15.10
2022-11-17T09:39:28.164Z,15.20
2022-11-17T09:41:40.104Z,15.10
2022-11-17T09:43:54.539Z,15.20
2022-11-17T09:46:15.171Z,15.20
2022-11-17T09:48:40.842Z,15.20
2022-11-17T09:50:44.163Z,15.10
2022-11-17T09:52:54.838Z,15.20
2022-11-17T09:54:57.925Z,15.20
2022-11-17T09:56:59.969Z,15.20
2022-11-17T09:59:04.420Z,15.20
2022-11-17T10:01:06.503Z,15.20
2022-11-17T10:03:15.279Z,15.20
2022-11-17T10:05:35.190Z,15.20
2022-11-17T10:07:36.909Z,15.20
2022-11-17T10:09:42.430Z,15.20
2022-11-17T10:11:44.419Z,15.20
2022-11-17T10:13:49.561Z,15.20
2022-11-17T10:16:02.179Z,15.10
2022-11-17T10:18:05.556Z,15.20
2022-11-17T10:20:14.915Z,15.10
2022-11-17T10:22:22.444Z,15.10
2022-11-17T10:24:43.020Z,15.10
2022-11-17T10:26:48.342Z,15.10
2022-11-17T10:29:08.491Z,15.10
2022-11-17T10:31:12.575Z,15.10
2022-11-17T10:33:14.313Z,15.10
2022-11-17T10:35:16.180Z,15.10
2022-11-17T10:37:25.366Z,15.10
2022-11-17T10:39:37.833Z,15.10
2022-11-17T10:41:41.272Z,15.10
2022-11-17T10:43:51.595Z,15.00
2022-11-17T10:45:55.123Z,15.00
2022-11-17T10:48:10.766Z,15.00
2022-11-17T10:50:17.523Z,15.00
2022-11-17T10:52:23.174Z,15.00
2022-11-17T10:54:24.958Z,15.00
2022-11-17T10:56:26.786Z,15.00
2022-11-17T10:58:29.816Z,15.00
2022-11-17T11:00:33.059Z,15.00
2022-11-17T11:02:36.146Z,15.00
2022-11-17T11:04:41.839Z,15.00
2022-11-17T11:06:43.607Z,15.00
2022-11-17T11:08:51.085Z,15.00
2022-11-17T11:10:53.421Z,15.00
2022-11-17T11:13:13.665Z,15.00
2022-11-17T11:15:18.968Z,15.00
2022-11-17T11:17:20.626Z,15.00
2022-11-17T11:19:26.177Z,15.00
2022-11-17T11:21:50.755Z,15.00
2022-11-17T11:24:11.106Z,15.10
2022-11-17T11:26:15.565Z,15.10
2022-11-17T11:28:37.331Z,15.10
2022-11-17T11:30:44.957Z,15.10
2022-11-17T11:33:05.529Z,15.10
2022-11-17T11:35:25.811Z,15.10
2022-11-17T11:37:35.013Z,15.10
2022-11-17T11:39:42.684Z,15.10
2022-11-17T11:41:47.859Z,15.10
2022-11-17T11:43:52.669Z,15.10
2022-11-17T11:46:10.394Z,15.20
2022-11-17T11:48:12.286Z,15.20
2022-11-17T11:50:16.504Z,15.20
2022-11-17T11:52:21.919Z,15.20
2022-11-17T11:54:26.158Z,15.20
2022-11-17T11:56:33.019Z,15.20
2022-11-17T11:58:37.614Z,15.30
2022-11-17T12:00:40.822Z,15.20
2022-11-17T12:02:45.855Z,15.30
2022-11-17T12:04:47.976Z,15.30
2022-11-17T12:06:55.935Z,15.30
2022-11-17T12:09:11.258Z,15.30
2022-11-17T12:11:32.600Z,15.30
2022-11-17T12:13:34.386Z,15.30
2022-11-17T12:15:36.632Z,15.30
2022-11-17T12:17:53.865Z,15.30
2022-11-17T12:19:57.015Z,15.30
2022-11-17T12:21:58.758Z,15.40
2022-11-17T12:24:29.697Z,15.30
2022-11-17T12:26:32.671Z,15.30
2022-11-17T12:28:39.016Z,15.30
2022-11-17T12:30:50.182Z,15.40
2022-11-17T12:32:52.928Z,15.30
2022-11-17T12:35:14.903Z,15.40
2022-11-17T12:37:27.519Z,15.40
2022-11-17T12:39:48.019Z,15.40
2022-11-17T12:41:49.785Z,15.40
2022-11-17T12:43:51.707Z,15.40
2022-11-17T12:45:53.510Z,15.40
2022-11-17T12:48:18.860Z,15.50
2022-11-17T12:50:31.582Z,15.50
2022-11-17T12:52:39.226Z,15.50
2022-11-17T12:54:51.572Z,15.50
2022-11-17T12:57:08.362Z,15.50
2022-11-17T12:59:23.902Z,15.50
2022-11-17T13:01:35.972Z,15.60
2022-11-17T13:03:47.127Z,15.50
2022-11-17T13:06:33.306Z,15.50
2022-11-17T13:08:27.723Z,15.50
2022-11-17T13:10:30.345Z,15.60
2022-11-17T13:12:32.953Z,15.60
2022-11-17T13:14:35.917Z,15.60
2022-11-17T13:16:42.421Z,15.60
2022-11-17T13:18:44.679Z,15.70
2022-11-17T13:20:48.139Z,15.70
2022-11-17T13:23:02.268Z,15.70
2022-11-17T13:25:33.342Z,15.70
2022-11-17T13:27:35.096Z,15.70
2022-11-17T13:29:37.913Z,15.70
2022-11-17T13:31:39.667Z,15.70
2022-11-17T13:33:41.377Z,15.70
2022-11-17T13:35:43.067Z,15.70
2022-11-17T13:37:44.848Z,15.70
2022-11-17T13:40:00.397Z,15.70
2022-11-17T13:42:02.554Z,15.80
2022-11-17T13:44:04.682Z,15.70
2022-11-17T13:46:06.683Z,15.70
2022-11-17T13:48:28.421Z,15.70
2022-11-17T13:50:30.164Z,15.70
2022-11-17T13:52:40.437Z,15.70
2022-11-17T13:54:45.563Z,15.70
2022-11-17T13:56:47.245Z,15.70
2022-11-17T13:58:49.798Z,15.70
2022-11-17T14:00:52.899Z,15.70
2022-11-17T14:02:58.044Z,15.60
2022-11-17T14:05:14.391Z,15.60
2022-11-17T14:07:29.073Z,15.60
2022-11-17T14:09:32.148Z,15.60
2022-11-17T14:11:33.916Z,15.60
2022-11-17T14:13:40.064Z,15.60
2022-11-17T14:15:42.241Z,15.60
2022-11-17T14:17:49.389Z,15.50
2022-11-17T14:19:51.413Z,15.50
2022-11-17T14:21:59.894Z,15.50
2022-11-17T14:24:03.537Z,15.50
2022-11-17T14:26:05.340Z,15.50
2022-11-17T14:28:14.172Z,15.40
2022-11-17T14:30:16.150Z,15.40
2022-11-17T14:32:17.872Z,15.40
2022-11-17T14:34:22.993Z,15.40
2022-11-17T14:36:24.899Z,15.30
2022-11-17T14:38:26.604Z,15.30
2022-11-17T14:40:28.414Z,15.30
2022-11-17T14:42:35.854Z,15.30
2022-11-17T14:44:38.121Z,15.30
2022-11-17T14:46:39.979Z,15.30
2022-11-17T14:48:41.631Z,15.30
2022-11-17T14:50:45.925Z,15.30
2022-11-17T14:52:47.652Z,15.30
2022-11-17T14:54:49.336Z,15.30
2022-11-17T14:56:51.088Z,15.20
2022-11-17T14:58:54.261Z,15.20
2022-11-17T15:00:55.953Z,15.20
2022-11-17T15:02:57.956Z,15.20
2022-11-17T15:05:00.331Z,15.20
2022-11-17T15:07:02.505Z,15.20
2022-11-17T15:09:07.915Z,15.10
2022-11-17T15:11:13.739Z,15.10
2022-11-17T15:13:15.383Z,15.20
2022-11-17T15:15:18.059Z,15.20
2022-11-17T15:17:19.810Z,15.10
2022-11-17T15:19:21.732Z,15.10
2022-11-17T15:21:23.475Z,15.10
2022-11-17T15:23:25.850Z,15.10
2022-11-17T15:25:27.615Z,15.10
2022-11-17T15:27:30.070Z,15.10
2022-11-17T15:29:31.822Z,15.10
2022-11-17T15:31:33.582Z,15.10
2022-11-17T15:33:35.348Z,15.10
2022-11-17T15:35:37.160Z,15.10
2022-11-17T15:37:38.845Z,15.10
2022-11-17T15:39:40.540Z,15.10
2022-11-17T15:41:42.413Z,15.10
2022-11-17T15:43:44.612Z,15.10
2022-11-17T15:45:46.497Z,15.10
2022-11-17T15:47:48.254Z,15.10
2022-11-17T15:49:49.942Z,15.10
2022-11-17T15:51:51.596Z,15.10
2022-11-17T15:53:56.376Z,15.10
2022-11-17T15:56:11.426Z,15.10
2022-11-17T15:58:13.356Z,15.10
2022-11-17T16:00:15.452Z,15.10
2022-11-17T16:02:17.918Z,15.10
2022-11-17T16:04:19.740Z,15.10
2022-11-17T16:06:21.536Z,15.10
2022-11-17T16:08:23.245Z,15.10
2022-11-17T16:10:25.020Z,15.00
2022-11-17T16:12:26.803Z,15.00
2022-11-17T16:14:28.606Z,15.00
2022-11-17T16:16:31.457Z,14.90
2022-11-17T16:18:34.062Z,15.00
2022-11-17T16:20:35.885Z,14.90
2022-11-17T16:22:37.615Z,14.90
2022-11-17T16:24:40.131Z,14.90
2022-11-17T16:26:41.864Z,14.80
2022-11-17T16:28:43.761Z,14.80
2022-11-17T16:30:45.585Z,14.80
2022-11-17T16:32:47.257Z,14.80
2022-11-17T16:34:49.268Z,14.80
2022-11-17T16:36:51.070Z,14.80
2022-11-17T16:39:01.851Z,14.80
2022-11-17T16:41:04.099Z,14.80
2022-11-17T16:43:06.030Z,14.80
2022-11-17T16:45:08.250Z,14.80
2022-11-17T16:47:10.029Z,14.80
2022-11-17T16:49:12.966Z,14.80
2022-11-17T16:51:15.112Z,14.80
2022-11-17T16:53:17.175Z,14.80
2022-11-17T16:55:18.957Z,14.90
2022-11-17T16:57:20.664Z,14.90
2022-11-17T16:59:22.480Z,14.80
2022-11-17T17:01:30.233Z,14.80
2022-11-17T17:03:31.964Z,14.80
2022-11-17T17:05:37.148Z,14.90
2022-11-17T17:07:38.928Z,14.80
2022-11-17T17:09:40.797Z,14.90
2022-11-17T17:11:42.679Z,14.80
2022-11-17T17:13:44.430Z,14.80
2022-11-17T17:15:46.115Z,14.90
2022-11-17T17:17:47.895Z,14.90
2022-11-17T17:19:49.665Z,14.80
2022-11-17T17:21:51.562Z,14.90
2022-11-17T17:23:53.443Z,14.80
2022-11-17T17:26:01.309Z,14.90
2022-11-17T17:28:03.428Z,14.90
2022-11-17T17:30:05.555Z,14.90
2022-11-17T17:32:07.338Z,14.90
2022-11-17T17:34:12.100Z,14.90
2022-11-17T17:36:15.437Z,14.90
2022-11-17T17:38:17.629Z,14.90
2022-11-17T17:40:19.322Z,14.90
2022-11-17T17:42:21.016Z,14.90
2022-11-17T17:44:22.834Z,14.90
2022-11-17T17:46:24.948Z,14.90
2022-11-17T17:48:26.734Z,14.90
2022-11-17T17:50:28.449Z,14.90
2022-11-17T17:52:30.200Z,14.90
2022-11-17T17:54:31.926Z,14.90
2022-11-17T17:56:34.577Z,14.90
2022-11-17T17:58:40.542Z,14.90
2022-11-17T18:00:42.285Z,14.90
2022-11-17T18:02:44.154Z,14.90
2022-11-17T18:04:45.945Z,14.90
2022-11-17T18:06:48.673Z,14.90
2022-11-17T18:08:50.739Z,14.90
2022-11-17T18:10:53.079Z,14.90
2022-11-17T18:12:54.788Z,14.90
2022-11-17T18:14:56.672Z,14.90
2022-11-17T18:16:58.660Z,14.90
2022-11-17T18:19:02.066Z,14.90
2022-11-17T18:21:05.416Z,14.90
2022-11-17T18:23:07.203Z,14.90
2022-11-17T18:25:09.830Z,14.90
2022-11-17T18:27:14.410Z,14.90
2022-11-17T18:29:18.492Z,14.90
2022-11-17T18:31:21.326Z,14.90
2022-11-17T18:33:25.045Z,14.90
2022-11-17T18:35:27.194Z,14.90
2022-11-17T18:37:28.903Z,14.90
2022-11-17T18:39:32.470Z,14.90
2022-11-17T18:41:35.428Z,14.90
2022-11-17T18:43:37.746Z,14.90
2022-11-17T18:45:39.623Z,14.90
2022-11-17T18:47:41.796Z,14.90
2022-11-17T18:49:43.541Z,14.90
2022-11-17T18:51:45.789Z,14.90
2022-11-17T18:53:51.639Z,14.90
2022-11-17T18:55:53.472Z,14.90
2022-11-17T18:57:55.283Z,14.90
2022-11-17T18:59:57.069Z,14.90
2022-11-17T19:01:59.039Z,14.90
2022-11-17T19:04:01.201Z,14.90
2022-11-17T19:06:03.632Z,14.90
2022-11-17T19:08:05.608Z,14.90
2022-11-17T19:10:07.619Z,14.90
2022-11-17T19:12:10.476Z,15.00
2022-11-17T19:14:12.249Z,14.90
2022-11-17T19:16:17.924Z,14.90
2022-11-17T19:18:19.846Z,14.90
2022-11-17T19:20:21.575Z,14.90
2022-11-17T19:22:26.092Z,14.90
2022-11-17T19:24:27.853Z,14.90
2022-11-17T19:26:32.878Z,14.90
2022-11-17T19:28:35.200Z,15.00
2022-11-17T19:30:36.951Z,14.90
2022-11-17T19:32:38.686Z,15.00
2022-11-17T19:34:44.623Z,15.00
2022-11-17T19:36:46.472Z,15.00
2022-11-17T19:38:49.028Z,15.00
2022-11-17T19:40:50.822Z,15.00
2022-11-17T19:42:52.593Z,14.90
2022-11-17T19:44:54.366Z,15.00
2022-11-17T19:46:56.258Z,14.90
2022-11-17T19:48:58.405Z,15.00
2022-11-17T19:51:11.732Z,15.00
2022-11-17T19:53:13.609Z,15.00
2022-11-17T19:55:15.403Z,15.00
2022-11-17T19:57:17.226Z,14.90
2022-11-17T19:59:19.297Z,14.90
2022-11-17T20:01:25.686Z,14.90
2022-11-17T20:03:27.618Z,15.00
2022-11-17T20:05:33.584Z,14.90
2022-11-17T20:07:35.444Z,14.90
2022-11-17T20:09:37.381Z,14.90
2022-11-17T20:11:59.997Z,14.90
2022-11-17T20:14:07.659Z,14.90
2022-11-17T20:16:16.674Z,14.90
2022-11-17T20:18:26.718Z,14.90
2022-11-17T20:20:33.745Z,14.80
2022-11-17T20:22:35.639Z,14.90
2022-11-17T20:24:37.453Z,14.90
2022-11-17T20:26:43.114Z,14.90
2022-11-17T20:31:07.084Z,14.80
2022-11-17T20:33:08.925Z,14.80
2022-11-17T20:35:11.497Z,14.80
2022-11-17T20:37:13.325Z,14.80
2022-11-17T20:39:15.867Z,14.80
2022-11-17T20:41:18.107Z,14.80
2022-11-17T20:43:20.012Z,14.80
2022-11-17T20:45:22.048Z,14.80
2022-11-17T20:47:27.533Z,14.80
2022-11-17T20:49:29.475Z,14.80
2022-11-17T20:51:32.438Z,14.80
2022-11-17T20:53:34.294Z,14.80
2022-11-17T20:55:39.311Z,14.80
2022-11-17T20:57:48.443Z,14.80
2022-11-17T20:59:50.231Z,14.80
2022-11-17T21:01:52.259Z,14.80
2022-11-17T21:03:54.090Z,14.80
2022-11-17T21:05:58.715Z,14.80
2022-11-17T21:08:00.847Z,14.90
2022-11-17T21:10:02.788Z,14.90
2022-11-17T21:12:04.780Z,14.90
2022-11-17T21:14:07.724Z,14.90
2022-11-17T21:16:11.018Z,14.90
2022-11-17T21:18:25.589Z,14.90
2022-11-17T21:20:28.306Z,14.90
2022-11-17T21:22:30.122Z,14.90
2022-11-17T21:24:31.956Z,14.90
2022-11-17T21:26:35.946Z,14.90
2022-11-17T21:28:38.484Z,14.90
2022-11-17T21:32:02.229Z,14.90
2022-11-17T21:33:44.534Z,15.00
2022-11-17T21:36:11.409Z,15.00
2022-11-17T21:38:16.915Z,15.00
2022-11-17T21:40:26.440Z,15.00
2022-11-17T21:42:32.651Z,15.00
2022-11-17T21:44:34.362Z,15.00
2022-11-17T21:46:36.425Z,15.00
2022-11-17T21:48:38.751Z,15.00
2022-11-17T21:50:44.027Z,15.00
2022-11-17T21:52:46.153Z,15.00
2022-11-17T21:54:47.922Z,15.00
2022-11-17T21:56:49.704Z,14.90
2022-11-17T21:59:11.279Z,15.00
2022-11-17T22:01:14.360Z,14.90
2022-11-17T22:03:16.139Z,14.90
2022-11-17T22:05:18.008Z,14.90
2022-11-17T22:07:19.777Z,14.90
2022-11-17T22:09:21.542Z,14.90
2022-11-17T22:11:37.168Z,14.90
2022-11-17T22:13:39.548Z,14.90
2022-11-17T22:15:41.285Z,14.80
2022-11-17T22:17:43.098Z,14.80
2022-11-17T22:19:44.844Z,14.80
2022-11-17T22:21:51.013Z,14.80
2022-11-17T22:23:52.727Z,14.80
2022-11-17T22:25:58.058Z,14.70
2022-11-17T22:27:59.841Z,14.70
2022-11-17T22:30:01.685Z,14.70
2022-11-17T22:32:03.436Z,14.70
2022-11-17T22:34:05.320Z,14.70
2022-11-17T22:36:07.770Z,14.70
2022-11-17T22:38:09.615Z,14.70
2022-11-17T22:40:11.395Z,14.60
2022-11-17T22:42:15.363Z,14.70
2022-11-17T22:44:17.129Z,14.60
2022-11-17T22:46:19.436Z,14.60
2022-11-17T22:48:21.353Z,14.60
2022-11-17T22:50:23.046Z,14.60
2022-11-17T22:52:24.737Z,14.60
2022-11-17T22:54:26.448Z,14.60
2022-11-17T22:56:28.927Z,14.50
2022-11-17T22:58:34.245Z,14.50
2022-11-17T23:00:36.107Z,14.50
2022-11-17T23:02:37.806Z,14.50
2022-11-17T23:04:39.521Z,14.50
2022-11-17T23:06:41.428Z,14.50
2022-11-17T23:08:43.163Z,14.50
2022-11-17T23:10:44.851Z,14.50
2022-11-17T23:12:46.542Z,14.50
2022-11-17T23:14:48.293Z,14.50
2022-11-17T23:16:49.924Z,14.50
2022-11-17T23:18:52.610Z,14.50
2022-11-17T23:20:54.362Z,14.50
2022-11-17T23:22:56.011Z,14.50
2022-11-17T23:24:57.695Z,14.40
2022-11-17T23:26:59.408Z,14.50
2022-11-17T23:29:01.134Z,14.40
2022-11-17T23:31:04.369Z,14.50
2022-11-17T23:33:06.070Z,14.40
2022-11-17T23:35:08.062Z,14.50
2022-11-17T23:37:09.758Z,14.50
2022-11-17T23:39:11.447Z,14.50
2022-11-17T23:41:14.292Z,14.50
2022-11-17T23:43:16.010Z,14.50
2022-11-17T23:45:17.789Z,14.50
2022-11-17T23:47:19.521Z,14.50
2022-11-17T23:49:21.222Z,14.50
2022-11-17T23:51:23.835Z,14.50
2022-11-17T23:53:25.609Z,14.50
2022-11-17T23:55:28.038Z,14.50
2022-11-17T23:57:29.772Z,14.50
2022-11-17T23:59:31.568Z,14.50
